VEAT/IXA METAR and TAF weather

Enter ICAO airport designator
Station Type Date Time Source
VEAT METAR 2021/10/22 13:30 UTC NOAA

VEAT 221330Z 00000KT 3500 BR FEW020 SCT100 25/24 Q1012 NOSIG


Station Type Date Time Source
VEAT Decoded METAR 2021/10/22 13:30 UTC NOAA

Agartala, India (VEAT) 23-53N 091-15E 16M
Oct 22, 2021 - 09:30 AM EDT / 2021.10.22 1330 UTC
Wind: Calm:0
Visibility: 2 mile(s):0
Sky conditions: partly cloudy
Weather: mist
Temperature: 77 F (25 C)
Dew Point: 75 F (24 C)
Relative Humidity: 94%
Pressure (altimeter): 29.88 in. Hg (1012 hPa)
ob: VEAT 221330Z 00000KT 3500 BR FEW020 SCT100 25/24 Q1012 NOSIG
cycle: 13

Station Type Date Time Source
VEAT TAF 2021/09/24 12:00 UTC NOAA

TAF VEAT 241100Z 2412/2421 00000KT 5000 BR FEW018 SCT100=

Example: see airport list